Time;durP1;ratioP1;P1;durP2;ratioP2;P2;SDS_P1;SDS_P2;PMS_P1;PMS_P2;Temp;Humidity;BMP_temperature;BMP_pressure;BME280_temperature;BME280_humidity;BME280_pressure;Samples;Min_cycle;Max_cycle;Signal;HPM_P1;HPM_P2
2021/01/28 00:01:06;;;;;;;27.77;18.03;;;;;;;;;;4935536;28;20674;-80
2021/01/28 00:03:34;;;;;;;29.03;18.20;;;;;;;;;;4930456;29;20812;-79
2021/01/28 00:06:01;;;;;;;32.20;19.33;;;;;;;;;;4930222;29;20358;-79
2021/01/28 00:08:27;;;;;;;32.53;19.00;;;;;;;;;;4946599;29;20734;-79
2021/01/28 00:10:55;;;;;;;31.23;19.60;;;;;;;;;;4931657;29;20287;-79
2021/01/28 00:13:21;;;;;;;27.30;16.90;;;;;;;;;;4946719;29;20874;-80
2021/01/28 00:15:47;;;;;;;28.43;18.27;;;;;;;;;;4933813;29;20330;-80
2021/01/28 00:18:14;;;;;;;28.50;17.53;;;;;;;;;;4946405;29;20291;-79
2021/01/28 00:20:45;;;;;;;29.10;19.00;;;;;;;;;;4944549;28;20653;-78
2021/01/28 00:23:15;;;;;;;29.53;19.43;;;;;;;;;;4941593;28;20647;-78
2021/01/28 00:25:42;;;;;;;29.07;18.73;;;;;;;;;;4941898;29;20328;-78
2021/01/28 00:28:12;;;;;;;27.67;18.10;;;;;;;;;;4930135;29;20272;-80
2021/01/28 00:30:40;;;;;;;26.40;15.57;;;;;;;;;;4932515;29;20287;-79
2021/01/28 00:33:07;;;;;;;25.67;15.47;;;;;;;;;;4944934;29;20270;-79
2021/01/28 00:35:40;;;;;;;28.67;17.77;;;;;;;;;;4946696;29;20267;-79
2021/01/28 00:38:08;;;;;;;28.67;18.77;;;;;;;;;;4946692;28;20347;-80
2021/01/28 00:40:37;;;;;;;27.00;17.60;;;;;;;;;;4945449;28;20118;-80
2021/01/28 00:43:05;;;;;;;31.13;17.50;;;;;;;;;;4950137;29;20268;-80
2021/01/28 00:45:33;;;;;;;28.63;16.43;;;;;;;;;;4934901;29;20598;-80
2021/01/28 00:48:01;;;;;;;32.83;19.97;;;;;;;;;;4945704;29;20286;-80
2021/01/28 00:50:30;;;;;;;33.83;18.47;;;;;;;;;;4944160;28;20810;-80
2021/01/28 00:52:56;;;;;;;27.43;17.13;;;;;;;;;;4947990;28;20271;-81
2021/01/28 00:55:23;;;;;;;32.13;19.17;;;;;;;;;;4931340;29;20357;-80
2021/01/28 00:58:00;;;;;;;32.07;20.10;;;;;;;;;;4946579;29;20266;-79
2021/01/28 01:00:29;;;;;;;31.20;18.23;;;;;;;;;;4942495;28;20962;-81
2021/01/28 01:02:55;;;;;;;31.80;19.73;;;;;;;;;;4948468;29;20274;-81
2021/01/28 01:05:26;;;;;;;30.20;17.40;;;;;;;;;;4948414;29;20264;-80
2021/01/28 01:07:52;;;;;;;31.30;19.37;;;;;;;;;;4934392;29;20342;-81
2021/01/28 01:10:37;;;;;;;25.43;16.73;;;;;;;;;;4951814;28;20326;-80
2021/01/28 01:13:04;;;;;;;28.57;16.60;;;;;;;;;;4957517;29;20303;-80
2021/01/28 01:15:30;;;;;;;28.63;17.93;;;;;;;;;;4947545;29;20303;-80
2021/01/28 01:17:56;;;;;;;33.00;19.50;;;;;;;;;;4963085;28;20294;-80
2021/01/28 01:20:23;;;;;;;27.87;18.13;;;;;;;;;;4961828;28;20331;-81
2021/01/28 01:22:49;;;;;;;23.87;14.73;;;;;;;;;;4963227;29;20288;-80
2021/01/28 01:25:16;;;;;;;26.93;18.53;;;;;;;;;;4950908;29;20275;-81
2021/01/28 01:27:42;;;;;;;29.83;18.23;;;;;;;;;;4963092;29;20274;-81
2021/01/28 01:30:09;;;;;;;26.93;17.10;;;;;;;;;;4947853;29;20283;-81
2021/01/28 01:32:35;;;;;;;26.20;18.10;;;;;;;;;;4950153;29;20300;-81
2021/01/28 01:35:01;;;;;;;22.90;14.57;;;;;;;;;;4940669;29;20272;-81
2021/01/28 01:37:27;;;;;;;26.17;17.00;;;;;;;;;;4954372;29;21228;-80
2021/01/28 01:39:54;;;;;;;24.20;15.73;;;;;;;;;;4952712;29;20366;-81
2021/01/28 01:42:20;;;;;;;22.97;14.23;;;;;;;;;;4954841;29;20298;-82
2021/01/28 01:44:46;;;;;;;24.33;15.03;;;;;;;;;;4940806;29;20272;-81
2021/01/28 01:47:22;;;;;;;24.33;16.17;;;;;;;;;;4954422;29;20279;-81
2021/01/28 01:49:48;;;;;;;24.43;15.20;;;;;;;;;;4970101;28;20282;-80
2021/01/28 01:52:15;;;;;;;25.23;16.53;;;;;;;;;;4953181;29;20279;-80
2021/01/28 01:54:44;;;;;;;22.03;13.97;;;;;;;;;;4952098;29;20275;-79
2021/01/28 01:57:20;;;;;;;22.97;13.50;;;;;;;;;;4938847;29;20824;-80
2021/01/28 01:59:52;;;;;;;22.03;12.97;;;;;;;;;;4947085;28;20299;-80
2021/01/28 02:02:19;;;;;;;20.50;13.23;;;;;;;;;;4949668;28;20860;-78
2021/01/28 02:04:47;;;;;;;22.17;13.63;;;;;;;;;;4933747;29;20310;-79
2021/01/28 02:07:17;;;;;;;23.30;14.53;;;;;;;;;;4948663;29;20380;-79
2021/01/28 02:09:44;;;;;;;23.47;13.67;;;;;;;;;;4946484;28;20295;-80
2021/01/28 02:12:10;;;;;;;20.40;12.87;;;;;;;;;;4948805;29;20288;-79
2021/01/28 02:14:36;;;;;;;22.90;14.20;;;;;;;;;;4952181;28;20334;-78
2021/01/28 02:17:04;;;;;;;23.90;15.17;;;;;;;;;;4948104;29;20289;-78
2021/01/28 02:19:45;;;;;;;22.60;13.97;;;;;;;;;;4944678;28;20280;-78
2021/01/28 02:22:11;;;;;;;28.93;17.57;;;;;;;;;;4947434;28;20291;-79
2021/01/28 02:24:48;;;;;;;27.03;16.53;;;;;;;;;;4946563;29;20271;-78
2021/01/28 02:27:15;;;;;;;29.07;16.97;;;;;;;;;;4962130;28;20709;-79
2021/01/28 02:29:43;;;;;;;28.50;16.37;;;;;;;;;;4946076;28;20294;-79
2021/01/28 02:32:09;;;;;;;26.73;16.63;;;;;;;;;;4945953;29;20295;-79
2021/01/28 02:34:36;;;;;;;30.50;17.10;;;;;;;;;;4931718;29;20316;-79
2021/01/28 02:37:09;;;;;;;32.60;18.77;;;;;;;;;;4929561;29;20302;-79
2021/01/28 02:39:35;;;;;;;28.63;16.25;;;;;;;;;;4959502;28;20278;-79
2021/01/28 02:42:08;;;;;;;28.60;16.40;;;;;;;;;;4947094;28;20038;-79
2021/01/28 02:44:34;;;;;;;29.23;16.80;;;;;;;;;;4931103;29;20259;-78
2021/01/28 02:47:00;;;;;;;24.37;15.07;;;;;;;;;;4929341;29;20633;-77
2021/01/28 02:49:26;;;;;;;27.30;15.40;;;;;;;;;;4930522;29;20271;-77
2021/01/28 02:51:52;;;;;;;29.53;17.53;;;;;;;;;;4946163;29;20307;-78
2021/01/28 02:54:18;;;;;;;24.63;15.53;;;;;;;;;;4929533;29;20650;-78
2021/01/28 02:56:44;;;;;;;27.57;15.60;;;;;;;;;;4945074;29;20275;-78
2021/01/28 02:59:10;;;;;;;26.73;15.63;;;;;;;;;;4928562;29;20686;-78
2021/01/28 03:01:38;;;;;;;26.07;15.00;;;;;;;;;;4931599;29;20637;-78
2021/01/28 03:04:04;;;;;;;23.63;14.20;;;;;;;;;;4932018;29;20429;-78
2021/01/28 03:06:30;;;;;;;24.37;14.10;;;;;;;;;;4947562;29;20603;-78
2021/01/28 03:08:57;;;;;;;20.00;12.17;;;;;;;;;;4947983;28;20287;-78
2021/01/28 03:11:24;;;;;;;18.63;10.83;;;;;;;;;;4947566;29;20284;-76
2021/01/28 03:13:50;;;;;;;15.67;9.50;;;;;;;;;;4932015;29;20276;-78
2021/01/28 03:16:16;;;;;;;18.13;11.23;;;;;;;;;;4932574;29;20279;-77
2021/01/28 03:18:42;;;;;;;16.17;10.13;;;;;;;;;;4931464;29;20279;-77
2021/01/28 03:21:08;;;;;;;15.67;9.97;;;;;;;;;;4946775;28;20326;-77
2021/01/28 03:23:34;;;;;;;14.87;9.50;;;;;;;;;;4931256;29;20287;-79
2021/01/28 03:26:00;;;;;;;15.73;9.60;;;;;;;;;;4934555;29;20271;-78
2021/01/28 03:28:27;;;;;;;17.03;10.07;;;;;;;;;;4933238;29;20298;-78
2021/01/28 03:30:53;;;;;;;15.20;9.50;;;;;;;;;;4947312;28;20287;-78
2021/01/28 03:33:20;;;;;;;18.03;10.63;;;;;;;;;;4931895;29;20512;-78
2021/01/28 03:35:46;;;;;;;15.57;10.40;;;;;;;;;;4947453;29;20286;-77
2021/01/28 03:38:13;;;;;;;15.57;10.03;;;;;;;;;;4928157;29;21035;-77
2021/01/28 03:40:40;;;;;;;20.80;10.97;;;;;;;;;;4952497;28;20334;-78
2021/01/28 03:43:11;;;;;;;16.47;10.27;;;;;;;;;;4927360;29;20837;-78
2021/01/28 03:45:37;;;;;;;15.97;10.60;;;;;;;;;;4953656;28;20267;-78
2021/01/28 03:48:04;;;;;;;17.37;10.63;;;;;;;;;;4935355;29;20370;-78
2021/01/28 03:50:32;;;;;;;17.40;10.13;;;;;;;;;;4930401;29;20286;-78
2021/01/28 03:52:59;;;;;;;18.60;10.93;;;;;;;;;;4931932;29;20270;-77
2021/01/28 03:55:25;;;;;;;14.60;9.20;;;;;;;;;;4947244;29;20283;-78
2021/01/28 03:57:52;;;;;;;16.40;10.30;;;;;;;;;;4931501;29;20275;-78
2021/01/28 04:00:20;;;;;;;16.20;10.57;;;;;;;;;;4928874;29;20280;-78
2021/01/28 04:02:46;;;;;;;17.07;10.43;;;;;;;;;;4929535;29;20982;-78
2021/01/28 04:05:13;;;;;;;14.70;9.70;;;;;;;;;;4929314;29;20355;-78
2021/01/28 04:07:39;;;;;;;16.40;9.77;;;;;;;;;;4928179;29;20263;-78
2021/01/28 04:10:07;;;;;;;15.07;8.77;;;;;;;;;;4924744;29;20291;-77
2021/01/28 04:12:33;;;;;;;14.20;8.90;;;;;;;;;;4929819;29;20750;-79
2021/01/28 04:14:59;;;;;;;14.03;8.13;;;;;;;;;;4928611;29;20300;-78
2021/01/28 04:17:26;;;;;;;13.70;7.63;;;;;;;;;;4928737;29;20298;-79
2021/01/28 04:19:52;;;;;;;12.37;7.83;;;;;;;;;;4928545;29;20283;-79
2021/01/28 04:22:18;;;;;;;12.90;8.40;;;;;;;;;;4944343;29;20800;-78
2021/01/28 04:24:45;;;;;;;12.93;8.87;;;;;;;;;;4944229;29;20366;-79
2021/01/28 04:27:11;;;;;;;16.33;8.90;;;;;;;;;;4929087;29;20323;-78
2021/01/28 04:29:37;;;;;;;12.93;7.57;;;;;;;;;;4928921;29;20267;-79
2021/01/28 04:32:03;;;;;;;12.80;7.93;;;;;;;;;;4944430;29;20303;-78
2021/01/28 04:34:29;;;;;;;17.87;8.20;;;;;;;;;;4944530;29;20279;-79
2021/01/28 04:36:55;;;;;;;16.03;7.80;;;;;;;;;;4928192;29;20268;-80
2021/01/28 04:39:21;;;;;;;14.57;8.20;;;;;;;;;;4943107;28;20279;-79
2021/01/28 04:41:47;;;;;;;17.83;9.03;;;;;;;;;;4944409;28;20349;-79
2021/01/28 04:44:13;;;;;;;13.93;8.90;;;;;;;;;;4933831;29;20287;-78
2021/01/28 04:46:44;;;;;;;16.27;10.20;;;;;;;;;;4947958;29;20287;-79
2021/01/28 04:49:13;;;;;;;17.07;9.97;;;;;;;;;;4944732;29;20329;-78
2021/01/28 04:51:41;;;;;;;19.73;11.50;;;;;;;;;;4947843;29;20283;-79
2021/01/28 04:54:07;;;;;;;17.57;10.27;;;;;;;;;;4948740;29;20292;-79
2021/01/28 04:56:34;;;;;;;19.13;10.90;;;;;;;;;;4947913;29;21017;-79
2021/01/28 04:59:08;;;;;;;18.77;10.70;;;;;;;;;;4936212;29;20279;-79
2021/01/28 05:01:35;;;;;;;20.00;11.13;;;;;;;;;;4933315;29;20283;-79
2021/01/28 05:04:02;;;;;;;20.00;10.70;;;;;;;;;;4931810;29;20768;-78
2021/01/28 05:06:28;;;;;;;20.17;11.43;;;;;;;;;;4931767;29;20264;-79
2021/01/28 05:08:54;;;;;;;19.77;10.13;;;;;;;;;;4930721;29;20407;-78
2021/01/28 05:11:24;;;;;;;21.17;10.77;;;;;;;;;;4948439;29;20268;-80
2021/01/28 05:13:50;;;;;;;20.33;10.67;;;;;;;;;;4933630;29;20341;-79
2021/01/28 05:16:40;;;;;;;17.63;10.13;;;;;;;;;;4930841;29;20281;-79
2021/01/28 05:19:11;;;;;;;17.73;9.17;;;;;;;;;;4931103;29;20275;-79
2021/01/28 05:21:41;;;;;;;17.40;9.37;;;;;;;;;;4933619;29;20287;-79
2021/01/28 05:24:13;;;;;;;19.03;10.33;;;;;;;;;;4963335;28;20286;-78
2021/01/28 05:26:40;;;;;;;16.97;9.63;;;;;;;;;;4932476;29;20278;-78
2021/01/28 05:29:22;;;;;;;17.63;11.43;;;;;;;;;;4933303;29;20290;-78
2021/01/28 05:31:49;;;;;;;16.37;9.83;;;;;;;;;;4950260;29;20353;-79
2021/01/28 05:34:20;;;;;;;15.17;9.40;;;;;;;;;;4950053;29;20264;-79
2021/01/28 05:36:58;;;;;;;16.47;9.50;;;;;;;;;;4949914;29;20278;-79
2021/01/28 05:39:24;;;;;;;15.80;9.33;;;;;;;;;;4945404;28;20346;-79
2021/01/28 05:41:52;;;;;;;19.60;9.20;;;;;;;;;;4949729;29;20350;-78
2021/01/28 05:44:29;;;;;;;17.53;9.43;;;;;;;;;;4932238;29;20286;-77
2021/01/28 05:47:06;;;;;;;18.50;9.97;;;;;;;;;;4947561;29;20369;-77
2021/01/28 05:49:34;;;;;;;16.07;8.27;;;;;;;;;;4942518;28;20308;-79
2021/01/28 05:52:12;;;;;;;18.53;8.40;;;;;;;;;;4933010;29;20781;-78
2021/01/28 05:54:38;;;;;;;18.47;8.97;;;;;;;;;;4929244;29;20291;-79
2021/01/28 05:57:10;;;;;;;14.33;8.50;;;;;;;;;;4932514;29;20635;-79
2021/01/28 05:59:39;;;;;;;19.03;10.50;;;;;;;;;;4926121;29;20295;-79
2021/01/28 06:02:24;;;;;;;15.17;8.27;;;;;;;;;;4947246;29;20793;-78
2021/01/28 06:05:01;;;;;;;16.57;9.10;;;;;;;;;;4947735;29;20272;-78
2021/01/28 06:07:30;;;;;;;29.50;16.40;;;;;;;;;;4945480;29;20334;-79
2021/01/28 06:10:03;;;;;;;24.23;13.20;;;;;;;;;;4946021;28;20279;-78
2021/01/28 06:12:47;;;;;;;64.73;34.93;;;;;;;;;;4927882;29;20273;-78
2021/01/28 06:15:32;;;;;;;75.73;38.63;;;;;;;;;;4936929;29;20267;-78
2021/01/28 06:18:01;;;;;;;27.47;18.20;;;;;;;;;;4932017;29;20995;-77
2021/01/28 06:20:46;;;;;;;13.13;8.60;;;;;;;;;;4924493;29;20290;-76
2021/01/28 06:23:15;;;;;;;15.20;8.87;;;;;;;;;;4923443;29;20287;-78
2021/01/28 06:26:00;;;;;;;16.30;9.03;;;;;;;;;;4943120;29;20268;-77
2021/01/28 06:28:35;;;;;;;15.73;8.83;;;;;;;;;;4961563;28;20267;-76
2021/01/28 06:31:17;;;;;;;16.60;9.50;;;;;;;;;;4932054;29;20274;-77
2021/01/28 06:33:54;;;;;;;19.70;9.40;;;;;;;;;;4931781;29;20295;-77
2021/01/28 06:36:34;;;;;;;16.17;9.23;;;;;;;;;;4945812;29;20753;-77
2021/01/28 06:39:06;;;;;;;15.67;9.03;;;;;;;;;;4930814;29;20290;-77
2021/01/28 06:41:35;;;;;;;14.63;8.93;;;;;;;;;;4945523;28;20291;-77
2021/01/28 06:44:04;;;;;;;14.50;8.40;;;;;;;;;;4932186;29;20274;-77
2021/01/28 06:46:54;;;;;;;15.03;8.17;;;;;;;;;;4929311;29;20280;-77
2021/01/28 06:49:24;;;;;;;12.57;7.67;;;;;;;;;;4942701;28;20281;-77
2021/01/28 06:51:59;;;;;;;16.17;9.43;;;;;;;;;;4943415;29;20275;-77
2021/01/28 06:54:28;;;;;;;15.33;9.03;;;;;;;;;;4940625;29;20308;-78
2021/01/28 06:57:01;;;;;;;15.87;9.10;;;;;;;;;;4944763;29;20976;-77
2021/01/28 06:59:50;;;;;;;18.57;11.17;;;;;;;;;;4937385;28;20315;-77
2021/01/28 07:02:35;;;;;;;17.70;9.90;;;;;;;;;;4925208;29;20299;-77
2021/01/28 07:05:20;;;;;;;15.67;8.37;;;;;;;;;;4926338;29;20773;-78
2021/01/28 07:07:49;;;;;;;17.50;9.13;;;;;;;;;;4942726;29;20276;-76
2021/01/28 07:10:21;;;;;;;14.87;8.63;;;;;;;;;;4945850;28;20307;-77
2021/01/28 07:12:52;;;;;;;15.73;9.33;;;;;;;;;;4941089;29;20283;-76
2021/01/28 07:15:19;;;;;;;15.57;9.83;;;;;;;;;;4944179;29;20370;-76
2021/01/28 07:17:49;;;;;;;17.10;9.17;;;;;;;;;;4936870;29;20274;-75
2021/01/28 07:20:35;;;;;;;18.70;10.50;;;;;;;;;;4930358;29;20287;-75
2021/01/28 07:23:20;;;;;;;14.83;8.90;;;;;;;;;;4957102;28;20294;-75
2021/01/28 07:25:48;;;;;;;16.23;9.13;;;;;;;;;;4945524;29;20329;-76
2021/01/28 07:28:14;;;;;;;18.10;9.13;;;;;;;;;;4941347;29;20372;-76
2021/01/28 07:30:48;;;;;;;19.13;10.13;;;;;;;;;;4929593;29;20287;-77
2021/01/28 07:33:23;;;;;;;15.60;8.93;;;;;;;;;;4951890;29;20278;-76
2021/01/28 07:35:59;;;;;;;19.23;9.97;;;;;;;;;;4936470;29;20371;-77
2021/01/28 07:38:28;;;;;;;19.77;9.90;;;;;;;;;;4965317;28;20279;-76
2021/01/28 07:40:59;;;;;;;17.70;8.90;;;;;;;;;;4936413;28;20653;-77
2021/01/28 07:43:26;;;;;;;18.90;10.87;;;;;;;;;;4952323;29;20299;-78
2021/01/28 07:46:11;;;;;;;18.10;9.37;;;;;;;;;;4951598;28;20310;-76
2021/01/28 07:48:37;;;;;;;17.83;10.50;;;;;;;;;;4934334;29;20291;-78
2021/01/28 07:51:22;;;;;;;16.17;10.40;;;;;;;;;;4948621;28;20287;-77
2021/01/28 07:53:49;;;;;;;17.63;10.53;;;;;;;;;;4945756;28;20287;-76
2021/01/28 07:56:34;;;;;;;19.43;11.07;;;;;;;;;;4930291;29;20330;-77
2021/01/28 07:59:00;;;;;;;18.90;10.90;;;;;;;;;;4925577;29;20291;-79
2021/01/28 08:01:27;;;;;;;17.47;10.30;;;;;;;;;;4944465;28;20301;-77
2021/01/28 08:04:05;;;;;;;17.17;10.63;;;;;;;;;;4930317;29;20326;-76
2021/01/28 08:06:34;;;;;;;16.80;10.23;;;;;;;;;;4929614;29;20335;-76
2021/01/28 08:09:05;;;;;;;17.57;9.47;;;;;;;;;;4927744;29;20382;-75
2021/01/28 08:11:31;;;;;;;15.60;8.50;;;;;;;;;;4929821;29;20283;-77
2021/01/28 08:13:58;;;;;;;18.13;9.33;;;;;;;;;;4944726;29;20958;-79
2021/01/28 08:16:25;;;;;;;17.53;9.97;;;;;;;;;;4927185;29;20278;-77
2021/01/28 08:19:02;;;;;;;15.33;8.70;;;;;;;;;;4945119;29;20259;-77
2021/01/28 08:21:29;;;;;;;14.80;8.33;;;;;;;;;;4938640;28;20619;-78
2021/01/28 08:24:08;;;;;;;14.40;7.40;;;;;;;;;;4928495;29;20287;-77
2021/01/28 08:26:38;;;;;;;15.07;8.47;;;;;;;;;;4944328;29;20995;-78
2021/01/28 08:29:06;;;;;;;13.50;8.77;;;;;;;;;;4931686;29;20298;-78
2021/01/28 08:31:38;;;;;;;16.07;9.23;;;;;;;;;;4945326;28;20291;-77
2021/01/28 08:34:06;;;;;;;20.13;11.17;;;;;;;;;;4944409;29;20793;-78
2021/01/28 08:36:33;;;;;;;26.33;14.43;;;;;;;;;;4960287;28;20374;-78
2021/01/28 08:39:17;;;;;;;24.60;14.27;;;;;;;;;;4928200;29;20287;-77
2021/01/28 08:41:44;;;;;;;20.03;10.40;;;;;;;;;;4957744;28;20297;-77
2021/01/28 08:44:13;;;;;;;18.07;9.10;;;;;;;;;;4927949;29;20334;-76
2021/01/28 08:46:40;;;;;;;13.00;7.77;;;;;;;;;;4928638;29;20287;-77
2021/01/28 08:49:16;;;;;;;12.27;6.87;;;;;;;;;;4940373;28;20295;-77
2021/01/28 08:51:43;;;;;;;11.73;5.50;;;;;;;;;;4956899;28;20732;-77
2021/01/28 08:54:18;;;;;;;10.70;6.30;;;;;;;;;;4940389;29;20299;-77
2021/01/28 08:56:45;;;;;;;13.30;6.10;;;;;;;;;;4928325;29;20423;-79
2021/01/28 08:59:13;;;;;;;13.97;6.47;;;;;;;;;;4935181;29;20290;-77
2021/01/28 09:01:43;;;;;;;10.70;5.80;;;;;;;;;;4927239;29;20284;-76
2021/01/28 09:04:12;;;;;;;10.50;5.90;;;;;;;;;;4940724;29;20280;-76
2021/01/28 09:06:39;;;;;;;11.33;6.27;;;;;;;;;;4926695;29;20284;-78
2021/01/28 09:09:13;;;;;;;9.80;5.47;;;;;;;;;;4945900;28;20314;-77
2021/01/28 09:11:40;;;;;;;8.20;4.73;;;;;;;;;;4944325;29;20711;-77
2021/01/28 09:14:14;;;;;;;8.43;4.37;;;;;;;;;;4944323;29;20302;-78
2021/01/28 09:16:40;;;;;;;7.47;3.87;;;;;;;;;;4959908;28;20122;-78
2021/01/28 09:19:09;;;;;;;16.13;6.87;;;;;;;;;;4943152;28;20035;-77
2021/01/28 09:21:40;;;;;;;11.67;5.20;;;;;;;;;;4940477;29;20295;-78
2021/01/28 09:24:07;;;;;;;6.00;3.33;;;;;;;;;;4943486;29;20043;-77
2021/01/28 09:26:35;;;;;;;7.20;3.53;;;;;;;;;;4928542;29;20028;-76
2021/01/28 09:29:09;;;;;;;6.63;3.43;;;;;;;;;;4945143;28;20024;-77
2021/01/28 09:31:37;;;;;;;6.57;3.67;;;;;;;;;;4944835;29;20615;-78
2021/01/28 09:34:12;;;;;;;5.80;2.23;;;;;;;;;;4946777;28;20126;-77
2021/01/28 09:36:39;;;;;;;4.93;2.13;;;;;;;;;;4930279;29;20279;-76
2021/01/28 09:39:07;;;;;;;5.40;2.10;;;;;;;;;;4929351;29;20315;-77
2021/01/28 09:41:45;;;;;;;4.53;1.90;;;;;;;;;;4931483;29;20326;-76
2021/01/28 09:44:31;;;;;;;3.27;1.80;;;;;;;;;;4946966;29;20031;-76
2021/01/28 09:47:12;;;;;;;2.73;1.43;;;;;;;;;;4931323;29;20039;-76
2021/01/28 09:49:39;;;;;;;4.37;1.50;;;;;;;;;;4925781;29;20024;-76
2021/01/28 09:52:06;;;;;;;4.63;1.70;;;;;;;;;;4945127;29;20047;-77
2021/01/28 09:54:36;;;;;;;2.40;1.33;;;;;;;;;;4946060;29;20291;-77
2021/01/28 09:57:02;;;;;;;5.03;1.70;;;;;;;;;;4929852;29;20031;-77
2021/01/28 09:59:28;;;;;;;3.40;1.60;;;;;;;;;;4946161;28;20818;-77
2021/01/28 10:01:56;;;;;;;4.23;1.60;;;;;;;;;;4930104;29;20283;-77
2021/01/28 10:04:28;;;;;;;4.87;2.50;;;;;;;;;;4946461;28;20036;-77
2021/01/28 10:06:55;;;;;;;3.40;1.80;;;;;;;;;;4944737;29;20552;-77
2021/01/28 10:09:21;;;;;;;4.43;1.90;;;;;;;;;;4940945;28;20398;-76
2021/01/28 10:11:48;;;;;;;3.33;1.90;;;;;;;;;;4942537;28;20122;-76
2021/01/28 10:14:14;;;;;;;2.87;1.10;;;;;;;;;;4931939;29;20114;-77
2021/01/28 10:16:40;;;;;;;1.43;0.93;;;;;;;;;;4946387;29;20554;-76
2021/01/28 10:19:06;;;;;;;2.40;1.27;;;;;;;;;;4962767;28;20072;-76
2021/01/28 10:21:32;;;;;;;2.97;1.43;;;;;;;;;;4943395;29;20028;-77
2021/01/28 10:23:58;;;;;;;3.70;1.50;;;;;;;;;;4946459;29;20490;-77
2021/01/28 10:26:27;;;;;;;2.63;1.40;;;;;;;;;;4945780;29;20308;-77
2021/01/28 10:28:53;;;;;;;2.13;1.40;;;;;;;;;;4946983;29;20377;-79
2021/01/28 10:31:20;;;;;;;2.73;1.50;;;;;;;;;;4946207;29;20433;-77
2021/01/28 10:33:47;;;;;;;4.90;2.10;;;;;;;;;;4946030;29;20031;-78
2021/01/28 10:36:13;;;;;;;5.07;1.60;;;;;;;;;;4949177;28;20031;-77
2021/01/28 10:38:41;;;;;;;3.87;1.57;;;;;;;;;;4938695;29;20035;-78
2021/01/28 10:41:07;;;;;;;3.37;1.30;;;;;;;;;;4944632;28;20295;-78
2021/01/28 10:43:33;;;;;;;2.73;1.30;;;;;;;;;;4944628;29;20030;-77
2021/01/28 10:45:59;;;;;;;6.23;3.03;;;;;;;;;;4929006;29;20032;-77
2021/01/28 10:48:25;;;;;;;4.50;1.37;;;;;;;;;;4947170;29;20281;-78
2021/01/28 10:50:53;;;;;;;4.43;1.60;;;;;;;;;;4951146;28;20031;-77
2021/01/28 10:53:19;;;;;;;6.10;2.30;;;;;;;;;;4961577;28;20036;-79
2021/01/28 10:55:45;;;;;;;12.70;4.60;;;;;;;;;;4938201;29;20058;-80
2021/01/28 10:58:12;;;;;;;8.13;3.13;;;;;;;;;;4953891;28;20086;-78
2021/01/28 11:00:39;;;;;;;5.67;2.53;;;;;;;;;;4950555;28;20027;-78
2021/01/28 11:03:05;;;;;;;7.43;3.27;;;;;;;;;;4953786;29;20186;-78
2021/01/28 11:05:33;;;;;;;9.43;4.73;;;;;;;;;;4937958;29;20031;-78
2021/01/28 11:08:00;;;;;;;6.33;3.17;;;;;;;;;;4950530;28;20043;-78
2021/01/28 11:10:27;;;;;;;5.73;2.80;;;;;;;;;;4934119;29;20529;-79
2021/01/28 11:12:53;;;;;;;6.03;3.00;;;;;;;;;;4943685;28;20047;-77
2021/01/28 11:15:22;;;;;;;6.50;2.83;;;;;;;;;;4953417;28;20571;-78
2021/01/28 11:17:48;;;;;;;5.60;2.57;;;;;;;;;;4936025;29;20079;-77
2021/01/28 11:20:16;;;;;;;4.73;1.80;;;;;;;;;;4949280;28;20035;-79
2021/01/28 11:22:42;;;;;;;6.00;2.47;;;;;;;;;;4952041;28;20051;-78
2021/01/28 11:25:10;;;;;;;6.63;3.20;;;;;;;;;;4950609;29;20537;-78
2021/01/28 11:27:37;;;;;;;7.40;2.80;;;;;;;;;;4951109;29;20035;-77
2021/01/28 11:30:04;;;;;;;5.93;2.87;;;;;;;;;;4935044;29;20481;-77
2021/01/28 11:32:30;;;;;;;7.33;3.30;;;;;;;;;;4934879;29;20591;-77
2021/01/28 11:34:56;;;;;;;4.00;2.00;;;;;;;;;;4934166;29;20058;-78
2021/01/28 11:37:22;;;;;;;4.50;2.07;;;;;;;;;;4956472;28;20040;-78
2021/01/28 11:39:49;;;;;;;3.40;1.60;;;;;;;;;;4935613;29;20050;-77
2021/01/28 11:42:16;;;;;;;3.80;2.10;;;;;;;;;;4931209;29;20038;-78
2021/01/28 11:44:42;;;;;;;3.60;1.97;;;;;;;;;;4933332;29;20023;-78
2021/01/28 11:47:08;;;;;;;8.07;4.30;;;;;;;;;;4932084;29;20745;-76
2021/01/28 11:49:34;;;;;;;5.67;2.27;;;;;;;;;;4942998;28;20115;-76
2021/01/28 11:52:00;;;;;;;4.27;1.60;;;;;;;;;;4944032;28;20046;-77
2021/01/28 11:54:27;;;;;;;4.63;2.00;;;;;;;;;;4943274;28;20038;-77
2021/01/28 11:56:53;;;;;;;7.07;3.73;;;;;;;;;;4941176;28;20063;-76
2021/01/28 11:59:21;;;;;;;6.87;3.37;;;;;;;;;;4942228;28;20039;-76
2021/01/28 12:01:47;;;;;;;6.40;2.97;;;;;;;;;;4926456;29;20024;-76
2021/01/28 12:04:14;;;;;;;5.40;3.13;;;;;;;;;;4934761;29;20036;-76
2021/01/28 12:06:41;;;;;;;5.47;3.07;;;;;;;;;;4928627;29;20038;-77
2021/01/28 12:09:08;;;;;;;6.63;2.87;;;;;;;;;;4940151;28;20123;-77
2021/01/28 12:11:34;;;;;;;6.37;3.30;;;;;;;;;;4939889;29;20039;-76
2021/01/28 12:14:00;;;;;;;7.57;3.73;;;;;;;;;;4935557;29;20039;-76
2021/01/28 12:16:26;;;;;;;6.70;3.60;;;;;;;;;;4945937;28;20043;-78
2021/01/28 12:18:52;;;;;;;4.43;2.37;;;;;;;;;;4935906;28;20034;-76
2021/01/28 12:21:18;;;;;;;5.63;3.50;;;;;;;;;;4925859;29;20050;-76
2021/01/28 12:23:44;;;;;;;5.43;2.70;;;;;;;;;;4925124;29;20024;-77
2021/01/28 12:26:11;;;;;;;4.70;2.57;;;;;;;;;;4941872;28;20094;-77
2021/01/28 12:28:37;;;;;;;5.37;2.90;;;;;;;;;;4953701;28;20086;-76
2021/01/28 12:31:03;;;;;;;6.20;2.40;;;;;;;;;;4923759;28;20024;-76
2021/01/28 12:33:30;;;;;;;6.00;3.20;;;;;;;;;;4942670;28;20031;-76
2021/01/28 12:35:56;;;;;;;6.83;3.00;;;;;;;;;;4927522;29;20775;-77
2021/01/28 12:38:22;;;;;;;5.03;3.23;;;;;;;;;;4934318;28;20031;-76
2021/01/28 12:40:48;;;;;;;8.87;3.70;;;;;;;;;;4928885;29;20028;-76
2021/01/28 12:43:14;;;;;;;7.20;3.57;;;;;;;;;;4930287;29;20028;-76
2021/01/28 12:45:40;;;;;;;6.07;3.90;;;;;;;;;;4944327;29;20106;-76
2021/01/28 12:48:06;;;;;;;5.93;3.03;;;;;;;;;;4942786;29;20051;-76
2021/01/28 12:50:32;;;;;;;7.90;4.73;;;;;;;;;;4941909;28;20027;-77
2021/01/28 12:52:59;;;;;;;5.27;2.97;;;;;;;;;;4928572;29;20664;-76
2021/01/28 12:55:25;;;;;;;5.97;2.40;;;;;;;;;;4925886;29;20482;-76
2021/01/28 12:57:52;;;;;;;5.40;2.90;;;;;;;;;;4940965;29;20413;-76
2021/01/28 13:00:21;;;;;;;9.07;4.37;;;;;;;;;;4939298;28;20038;-75
2021/01/28 13:02:47;;;;;;;6.17;2.67;;;;;;;;;;4944165;28;20091;-78
2021/01/28 13:05:13;;;;;;;8.43;2.33;;;;;;;;;;4945682;28;20486;-78
2021/01/28 13:07:40;;;;;;;3.10;1.83;;;;;;;;;;4950244;29;20082;-77
2021/01/28 13:10:07;;;;;;;3.17;1.43;;;;;;;;;;4932574;29;20031;-75
2021/01/28 13:12:33;;;;;;;3.87;1.93;;;;;;;;;;4929091;29;20509;-75
2021/01/28 13:14:59;;;;;;;3.20;1.60;;;;;;;;;;4939665;29;20144;-75
2021/01/28 13:17:25;;;;;;;3.30;1.83;;;;;;;;;;4932182;29;20028;-75
2021/01/28 13:19:52;;;;;;;3.07;1.57;;;;;;;;;;4945720;28;20036;-76
2021/01/28 13:22:18;;;;;;;3.10;1.53;;;;;;;;;;4926908;29;20046;-75
2021/01/28 13:24:44;;;;;;;2.93;1.90;;;;;;;;;;4943561;29;20118;-76
2021/01/28 13:27:10;;;;;;;3.80;1.50;;;;;;;;;;4947678;28;20036;-76
2021/01/28 13:29:37;;;;;;;2.20;1.33;;;;;;;;;;4949068;28;20027;-76
2021/01/28 13:32:03;;;;;;;2.17;1.30;;;;;;;;;;4931224;29;20122;-75
2021/01/28 13:34:29;;;;;;;4.63;1.50;;;;;;;;;;4945700;29;20028;-77
2021/01/28 13:36:55;;;;;;;4.57;2.33;;;;;;;;;;4929167;29;20020;-79
2021/01/28 13:39:24;;;;;;;3.57;2.03;;;;;;;;;;4939662;28;20059;-76
2021/01/28 13:41:50;;;;;;;4.00;1.80;;;;;;;;;;4929727;29;20028;-75
2021/01/28 13:44:16;;;;;;;2.17;1.27;;;;;;;;;;4927992;29;20033;-77
2021/01/28 13:46:42;;;;;;;3.00;1.40;;;;;;;;;;4929336;29;20035;-76
2021/01/28 13:49:08;;;;;;;3.03;1.90;;;;;;;;;;4931227;29;20414;-76
2021/01/28 13:51:34;;;;;;;3.27;1.47;;;;;;;;;;4944828;29;20043;-75
2021/01/28 13:54:00;;;;;;;2.77;1.40;;;;;;;;;;4928532;29;20040;-76
2021/01/28 13:56:26;;;;;;;3.07;1.60;;;;;;;;;;4928149;29;20031;-76
2021/01/28 13:58:53;;;;;;;7.60;4.00;;;;;;;;;;4944315;29;20525;-76
2021/01/28 14:01:19;;;;;;;2.90;1.70;;;;;;;;;;4943749;29;20082;-76
2021/01/28 14:03:45;;;;;;;2.20;1.20;;;;;;;;;;4946672;29;20036;-75
2021/01/28 14:06:11;;;;;;;2.33;1.10;;;;;;;;;;4945537;29;20119;-76
2021/01/28 14:08:37;;;;;;;3.30;1.37;;;;;;;;;;4931594;29;20344;-77
2021/01/28 14:11:04;;;;;;;3.40;1.57;;;;;;;;;;4943778;28;20038;-75
2021/01/28 14:13:30;;;;;;;3.60;1.50;;;;;;;;;;4931311;29;20871;-75
2021/01/28 14:15:56;;;;;;;3.77;2.20;;;;;;;;;;4928624;29;20031;-76
2021/01/28 14:18:22;;;;;;;5.63;2.17;;;;;;;;;;4944969;29;20035;-76
2021/01/28 14:20:49;;;;;;;3.67;2.07;;;;;;;;;;4928556;29;20478;-75
2021/01/28 14:23:15;;;;;;;3.23;2.10;;;;;;;;;;4942711;29;20046;-76
2021/01/28 14:25:41;;;;;;;4.83;2.40;;;;;;;;;;4944322;29;20728;-75
2021/01/28 14:28:07;;;;;;;6.07;3.43;;;;;;;;;;4927940;29;20649;-75
2021/01/28 14:30:34;;;;;;;6.77;2.93;;;;;;;;;;4925955;29;20807;-76
2021/01/28 14:33:00;;;;;;;4.27;2.13;;;;;;;;;;4945867;29;20090;-76
2021/01/28 14:35:27;;;;;;;4.27;2.20;;;;;;;;;;4927637;29;20028;-76
2021/01/28 14:37:53;;;;;;;5.97;2.47;;;;;;;;;;4944657;28;20027;-75
2021/01/28 14:40:21;;;;;;;3.90;2.20;;;;;;;;;;4933681;28;20562;-74